METAR Data
IDs: Format: Raw Decoded Include TAF

Data at: 0233 UTC 19 Feb 2019

Region: TOP
KATL 190152Z 33007KT 10SM BKN110 OVC150 09/01 A3031 RMK AO2 SLP267 VIRGA OHD-ALQDS T00940006

KBOS 190154Z 31011G21KT 10SM FEW050 M02/M08 A3010 RMK AO2 SLP190 T10171083

KBWI 190154Z 32016G25KT 10SM BKN055 03/M06 A3031 RMK AO2 SLP263 T00281061

KCLE 190209Z 01003KT 10SM FEW021 SCT028 OVC036 M06/M09 A3049 RMK AO2 T10611094 $

KCLT 190152Z 36006KT 10SM SCT170 BKN230 10/M02 A3027 RMK AO2 PRESRR SLP251 T01001017

KCVG 190152Z 36006KT 10SM SCT046 OVC250 M02/M07 A3048 RMK AO2 SLP328 T10221072

KDCA 190152Z 33012KT 10SM BKN065 OVC180 05/M05 A3033 RMK AO2 SLP269 T00501050

KDEN 190231Z 30009KT 5SM -SN BR SCT010 OVC021 M08/M10 A2999 RMK AO2 P0000 T10831100

KDFW 190153Z 04011KT 10SM SCT230 BKN240 OVC250 03/M06 A3027 RMK AO2 SLP254 T00331056 $

KDTW 190153Z 34003KT 10SM CLR M07/M13 A3048 RMK AO2 SLP333 T10671128 $

KEWR 190151Z 31011G20KT 10SM FEW035 FEW250 M02/M10 A3025 RMK AO2 SLP242 T10171100

KFLL 190153Z 15007KT 10SM FEW022 SCT065 26/24 A3015 RMK AO2 SLP210 T02560244

KIAD 190152Z 31017KT 10SM BKN049 03/M06 A3030 RMK AO2 SLP263 T00281061

KIAH 190153Z 05012KT 10SM SCT090 BKN250 13/02 A3015 RMK AO2 SLP209 T01330022

KJFK 190151Z 31017G26KT 10SM FEW043 SCT250 M01/M09 A3024 RMK AO2 PK WND 31026/0149 SLP240 T10111094 $

KLAS 190156Z 32017G25KT 10SM FEW080 SCT120 BKN220 06/M06 A2994 RMK AO2 PK WND 32030/0126 SLP144 VCSH T00561056 $

KLAX 190153Z VRB04KT 10SM FEW100 12/M01 A3003 RMK AO2 SLP168 T01221006

KLGA 190151Z COR 33013KT 10SM FEW040 FEW250 M01/M10 A3024 RMK AO2 PK WND 32030/0055 SLP238 T10111100

KMCO 190153Z 13005KT 10SM BKN065 24/21 A3015 RMK AO2 SLP209 T02440206

KMDW 190153Z 36004KT 10SM BKN036 M03/M08 A3052 RMK AO2 SLP350 T10281083 $

KMEM 190154Z 04009KT 10SM SCT170 BKN240 03/M03 A3044 RMK AO2 SLP309 T00281033 $

KMIA 190153Z 13006KT 10SM FEW015 SCT070 25/24 A3017 RMK AO2 SLP215 T02500239

KMSP 190153Z 26006KT 10SM FEW130 SCT200 BKN250 M10/M14 A3052 RMK AO2 SLP354 T11001144

KORD 190151Z 31005KT 10SM BKN030 M06/M11 A3051 RMK AO2 SLP342 T10611106 $

KPDX 190153Z 00000KT 10SM -RA SCT028 BKN033 BKN060 06/01 A3039 RMK AO2 RAB01E12B33 SLP290 P0000 T00560011

KPHL 190154Z 34010KT 10SM BKN047 01/M06 A3028 RMK AO2 SLP255 T00111061 $

KPHX 190151Z 30010KT 10SM FEW060 SCT085 12/M04 A2989 RMK AO2 SLP119 T01171039 $

KPIT 190151Z 30008KT 10SM SCT022 BKN032 M06/M09 A3041 RMK AO2 SLP322 T10611094

KSAN 190151Z 33012KT 10SM FEW046 SCT060 SCT160 12/01 A3004 RMK AO2 SLP171 CB DSNT NE MOV S VCSH T01220006 $

KSEA 190153Z 03003KT 10SM FEW027 BKN060 06/00 A3034 RMK AO2 SLP282 T00560000

KSFO 190156Z 36009KT 10SM CLR 11/02 A3020 RMK AO2 SLP225 T01110017

KSLC 190154Z 33013KT 10SM SCT030 BKN039 M01/M08 A2997 RMK AO2 SLP169 VCSH T10111083

KSTL 190151Z 36007KT 10SM OVC032 M02/M08 A3054 RMK AO2 SLP355 T10171078

KTPA 190153Z 17004KT 9SM CLR 24/21 A3015 RMK AO2 SLP209 T02390211